sensor_id;sensor_type;location;lat;lon;timestamp;P1;durP1;ratioP1;P2;durP2;ratioP2
71303;SDS011;59091;47.446;19.148;2023-01-10T00:00:29;21.17;;;11.77;;
71303;SDS011;59091;47.446;19.148;2023-01-10T00:02:59;22.75;;;11.55;;
71303;SDS011;59091;47.446;19.148;2023-01-10T00:05:28;17.98;;;11.00;;
71303;SDS011;59091;47.446;19.148;2023-01-10T00:07:54;16.80;;;11.27;;
71303;SDS011;59091;47.446;19.148;2023-01-10T00:10:19;16.90;;;11.23;;
71303;SDS011;59091;47.446;19.148;2023-01-10T00:12:45;19.83;;;11.48;;
71303;SDS011;59091;47.446;19.148;2023-01-10T00:17:58;15.10;;;10.50;;
71303;SDS011;59091;47.446;19.148;2023-01-10T00:20:23;16.23;;;10.85;;
71303;SDS011;59091;47.446;19.148;2023-01-10T00:22:49;15.45;;;10.30;;
71303;SDS011;59091;47.446;19.148;2023-01-10T00:25:15;15.20;;;10.50;;
71303;SDS011;59091;47.446;19.148;2023-01-10T00:27:43;20.08;;;11.38;;
71303;SDS011;59091;47.446;19.148;2023-01-10T00:30:10;22.05;;;11.98;;
71303;SDS011;59091;47.446;19.148;2023-01-10T00:32:42;15.15;;;10.77;;
71303;SDS011;59091;47.446;19.148;2023-01-10T00:35:08;19.58;;;10.88;;
71303;SDS011;59091;47.446;19.148;2023-01-10T00:37:35;18.88;;;11.63;;
71303;SDS011;59091;47.446;19.148;2023-01-10T00:40:00;17.88;;;11.55;;
71303;SDS011;59091;47.446;19.148;2023-01-10T00:42:26;18.40;;;11.68;;
71303;SDS011;59091;47.446;19.148;2023-01-10T00:45:12;18.52;;;11.23;;
71303;SDS011;59091;47.446;19.148;2023-01-10T00:47:37;17.63;;;11.43;;
71303;SDS011;59091;47.446;19.148;2023-01-10T00:50:03;18.00;;;10.93;;
71303;SDS011;59091;47.446;19.148;2023-01-10T00:52:35;18.60;;;11.43;;
71303;SDS011;59091;47.446;19.148;2023-01-10T00:55:01;20.08;;;11.25;;
71303;SDS011;59091;47.446;19.148;2023-01-10T00:57:27;18.08;;;11.55;;
71303;SDS011;59091;47.446;19.148;2023-01-10T00:59:52;18.25;;;11.13;;
71303;SDS011;59091;47.446;19.148;2023-01-10T01:02:18;19.15;;;10.50;;
71303;SDS011;59091;47.446;19.148;2023-01-10T01:04:43;15.18;;;10.85;;
71303;SDS011;59091;47.446;19.148;2023-01-10T01:07:08;19.33;;;12.15;;
71303;SDS011;59091;47.446;19.148;2023-01-10T01:09:34;20.10;;;12.60;;
71303;SDS011;59091;47.446;19.148;2023-01-10T01:12:19;19.05;;;12.40;;
71303;SDS011;59091;47.446;19.148;2023-01-10T01:14:45;18.80;;;12.75;;
71303;SDS011;59091;47.446;19.148;2023-01-10T01:17:10;19.65;;;12.23;;
71303;SDS011;59091;47.446;19.148;2023-01-10T01:19:35;15.35;;;10.05;;
71303;SDS011;59091;47.446;19.148;2023-01-10T01:22:01;13.80;;;9.43;;
71303;SDS011;59091;47.446;19.148;2023-01-10T01:24:26;13.93;;;9.85;;
71303;SDS011;59091;47.446;19.148;2023-01-10T01:26:52;16.55;;;10.30;;
71303;SDS011;59091;47.446;19.148;2023-01-10T01:29:17;14.52;;;10.40;;
71303;SDS011;59091;47.446;19.148;2023-01-10T01:31:42;13.43;;;10.05;;
71303;SDS011;59091;47.446;19.148;2023-01-10T01:34:08;15.88;;;10.50;;
71303;SDS011;59091;47.446;19.148;2023-01-10T01:36:33;16.33;;;11.30;;
71303;SDS011;59091;47.446;19.148;2023-01-10T01:38:59;17.08;;;11.68;;
71303;SDS011;59091;47.446;19.148;2023-01-10T01:41:24;16.23;;;10.80;;
71303;SDS011;59091;47.446;19.148;2023-01-10T01:44:15;15.95;;;10.25;;
71303;SDS011;59091;47.446;19.148;2023-01-10T01:46:43;16.80;;;11.30;;
71303;SDS011;59091;47.446;19.148;2023-01-10T01:49:28;16.27;;;11.10;;
71303;SDS011;59091;47.446;19.148;2023-01-10T01:51:58;16.13;;;11.20;;
71303;SDS011;59091;47.446;19.148;2023-01-10T01:54:27;17.38;;;11.02;;
71303;SDS011;59091;47.446;19.148;2023-01-10T01:56:58;18.08;;;10.82;;
71303;SDS011;59091;47.446;19.148;2023-01-10T01:59:41;17.17;;;10.27;;
71303;SDS011;59091;47.446;19.148;2023-01-10T02:02:11;15.02;;;9.27;;
71303;SDS011;59091;47.446;19.148;2023-01-10T02:04:42;15.55;;;9.73;;
71303;SDS011;59091;47.446;19.148;2023-01-10T02:07:13;14.20;;;9.73;;
71303;SDS011;59091;47.446;19.148;2023-01-10T02:12:06;15.02;;;10.90;;
71303;SDS011;59091;47.446;19.148;2023-01-10T02:14:34;15.05;;;11.32;;
71303;SDS011;59091;47.446;19.148;2023-01-10T02:17:02;15.50;;;11.57;;
71303;SDS011;59091;47.446;19.148;2023-01-10T02:19:35;17.63;;;11.55;;
71303;SDS011;59091;47.446;19.148;2023-01-10T02:22:11;18.77;;;11.95;;
71303;SDS011;59091;47.446;19.148;2023-01-10T02:37:19;17.60;;;11.50;;
71303;SDS011;59091;47.446;19.148;2023-01-10T02:42:21;15.38;;;10.65;;
71303;SDS011;59091;47.446;19.148;2023-01-10T02:44:55;15.82;;;11.00;;
71303;SDS011;59091;47.446;19.148;2023-01-10T02:47:26;15.97;;;10.77;;
71303;SDS011;59091;47.446;19.148;2023-01-10T02:50:15;16.67;;;10.63;;
71303;SDS011;59091;47.446;19.148;2023-01-10T02:52:47;17.67;;;11.93;;
71303;SDS011;59091;47.446;19.148;2023-01-10T02:55:12;17.83;;;11.88;;
71303;SDS011;59091;47.446;19.148;2023-01-10T03:00:24;15.75;;;10.18;;
71303;SDS011;59091;47.446;19.148;2023-01-10T03:11:22;15.30;;;10.15;;
71303;SDS011;59091;47.446;19.148;2023-01-10T03:14:04;14.52;;;10.02;;
71303;SDS011;59091;47.446;19.148;2023-01-10T03:16:34;13.35;;;9.48;;
71303;SDS011;59091;47.446;19.148;2023-01-10T03:21:41;15.63;;;9.95;;
71303;SDS011;59091;47.446;19.148;2023-01-10T03:24:12;14.80;;;9.63;;
71303;SDS011;59091;47.446;19.148;2023-01-10T03:26:52;14.70;;;9.95;;
71303;SDS011;59091;47.446;19.148;2023-01-10T03:29:28;12.90;;;8.90;;
71303;SDS011;59091;47.446;19.148;2023-01-10T03:32:07;12.27;;;8.68;;
71303;SDS011;59091;47.446;19.148;2023-01-10T03:34:35;12.65;;;8.63;;
71303;SDS011;59091;47.446;19.148;2023-01-10T03:37:04;12.35;;;8.65;;
71303;SDS011;59091;47.446;19.148;2023-01-10T03:42:28;12.38;;;8.75;;
71303;SDS011;59091;47.446;19.148;2023-01-10T03:45:32;11.57;;;8.05;;
71303;SDS011;59091;47.446;19.148;2023-01-10T03:48:07;12.45;;;8.52;;
71303;SDS011;59091;47.446;19.148;2023-01-10T03:50:35;12.23;;;8.35;;
71303;SDS011;59091;47.446;19.148;2023-01-10T03:53:02;13.18;;;8.88;;
71303;SDS011;59091;47.446;19.148;2023-01-10T03:55:29;11.43;;;8.63;;
71303;SDS011;59091;47.446;19.148;2023-01-10T03:57:55;11.00;;;7.63;;
71303;SDS011;59091;47.446;19.148;2023-01-10T04:00:21;12.82;;;8.57;;
71303;SDS011;59091;47.446;19.148;2023-01-10T04:02:48;15.85;;;8.77;;
71303;SDS011;59091;47.446;19.148;2023-01-10T04:05:13;11.65;;;8.25;;
71303;SDS011;59091;47.446;19.148;2023-01-10T04:07:39;11.52;;;8.10;;
71303;SDS011;59091;47.446;19.148;2023-01-10T04:10:05;11.20;;;8.48;;
71303;SDS011;59091;47.446;19.148;2023-01-10T04:12:31;10.05;;;7.88;;
71303;SDS011;59091;47.446;19.148;2023-01-10T04:14:56;17.85;;;8.65;;
71303;SDS011;59091;47.446;19.148;2023-01-10T04:17:22;11.63;;;8.10;;
71303;SDS011;59091;47.446;19.148;2023-01-10T04:19:47;11.95;;;8.10;;
71303;SDS011;59091;47.446;19.148;2023-01-10T04:22:13;10.60;;;7.72;;
71303;SDS011;59091;47.446;19.148;2023-01-10T04:24:38;10.43;;;7.95;;
71303;SDS011;59091;47.446;19.148;2023-01-10T04:27:04;11.07;;;7.88;;
71303;SDS011;59091;47.446;19.148;2023-01-10T04:29:30;10.82;;;7.78;;
71303;SDS011;59091;47.446;19.148;2023-01-10T04:31:55;12.43;;;8.45;;
71303;SDS011;59091;47.446;19.148;2023-01-10T04:34:21;14.40;;;8.50;;
71303;SDS011;59091;47.446;19.148;2023-01-10T04:36:47;13.57;;;8.88;;
71303;SDS011;59091;47.446;19.148;2023-01-10T04:39:13;14.38;;;9.80;;
71303;SDS011;59091;47.446;19.148;2023-01-10T04:41:39;14.70;;;9.55;;
71303;SDS011;59091;47.446;19.148;2023-01-10T04:44:04;14.18;;;9.32;;
71303;SDS011;59091;47.446;19.148;2023-01-10T04:46:30;12.75;;;8.98;;
71303;SDS011;59091;47.446;19.148;2023-01-10T04:48:56;15.02;;;9.60;;
71303;SDS011;59091;47.446;19.148;2023-01-10T04:51:23;14.80;;;8.98;;
71303;SDS011;59091;47.446;19.148;2023-01-10T04:53:49;13.60;;;8.75;;
71303;SDS011;59091;47.446;19.148;2023-01-10T04:56:15;13.35;;;9.27;;
71303;SDS011;59091;47.446;19.148;2023-01-10T04:58:42;14.43;;;9.18;;
71303;SDS011;59091;47.446;19.148;2023-01-10T05:01:09;14.25;;;8.50;;
71303;SDS011;59091;47.446;19.148;2023-01-10T05:03:36;13.63;;;8.95;;
71303;SDS011;59091;47.446;19.148;2023-01-10T05:06:02;13.05;;;8.07;;
71303;SDS011;59091;47.446;19.148;2023-01-10T05:08:28;14.10;;;8.80;;
71303;SDS011;59091;47.446;19.148;2023-01-10T05:10:53;12.35;;;8.45;;
71303;SDS011;59091;47.446;19.148;2023-01-10T05:13:18;12.30;;;8.35;;
71303;SDS011;59091;47.446;19.148;2023-01-10T05:15:44;12.32;;;8.15;;
71303;SDS011;59091;47.446;19.148;2023-01-10T05:18:09;12.50;;;8.23;;
71303;SDS011;59091;47.446;19.148;2023-01-10T05:20:35;15.02;;;8.32;;
71303;SDS011;59091;47.446;19.148;2023-01-10T05:23:00;13.98;;;7.80;;
71303;SDS011;59091;47.446;19.148;2023-01-10T05:25:25;9.10;;;7.05;;
71303;SDS011;59091;47.446;19.148;2023-01-10T05:27:51;9.27;;;7.40;;
71303;SDS011;59091;47.446;19.148;2023-01-10T05:30:16;10.85;;;7.15;;
71303;SDS011;59091;47.446;19.148;2023-01-10T05:32:42;8.82;;;6.55;;
71303;SDS011;59091;47.446;19.148;2023-01-10T05:35:08;8.80;;;5.53;;
71303;SDS011;59091;47.446;19.148;2023-01-10T05:37:34;6.88;;;5.28;;
71303;SDS011;59091;47.446;19.148;2023-01-10T05:39:59;7.43;;;5.20;;
71303;SDS011;59091;47.446;19.148;2023-01-10T05:42:25;5.35;;;4.80;;
71303;SDS011;59091;47.446;19.148;2023-01-10T05:44:50;5.88;;;4.68;;
71303;SDS011;59091;47.446;19.148;2023-01-10T05:47:16;4.80;;;4.30;;
71303;SDS011;59091;47.446;19.148;2023-01-10T05:49:41;5.45;;;4.20;;
71303;SDS011;59091;47.446;19.148;2023-01-10T05:52:06;4.75;;;4.35;;
71303;SDS011;59091;47.446;19.148;2023-01-10T05:54:32;5.20;;;4.55;;
71303;SDS011;59091;47.446;19.148;2023-01-10T05:56:57;6.07;;;4.30;;
71303;SDS011;59091;47.446;19.148;2023-01-10T05:59:23;6.97;;;4.40;;
71303;SDS011;59091;47.446;19.148;2023-01-10T06:01:48;6.30;;;4.18;;
71303;SDS011;59091;47.446;19.148;2023-01-10T06:04:13;5.63;;;3.60;;
71303;SDS011;59091;47.446;19.148;2023-01-10T06:06:39;4.65;;;3.83;;
71303;SDS011;59091;47.446;19.148;2023-01-10T06:09:05;4.32;;;3.70;;
71303;SDS011;59091;47.446;19.148;2023-01-10T06:11:30;4.63;;;3.88;;
71303;SDS011;59091;47.446;19.148;2023-01-10T06:14:00;4.07;;;3.45;;
71303;SDS011;59091;47.446;19.148;2023-01-10T06:16:26;3.70;;;3.30;;
71303;SDS011;59091;47.446;19.148;2023-01-10T06:18:52;3.88;;;3.50;;
71303;SDS011;59091;47.446;19.148;2023-01-10T06:21:18;4.05;;;3.33;;
71303;SDS011;59091;47.446;19.148;2023-01-10T06:23:43;4.88;;;3.40;;
71303;SDS011;59091;47.446;19.148;2023-01-10T06:26:09;3.70;;;3.28;;
71303;SDS011;59091;47.446;19.148;2023-01-10T06:28:34;4.10;;;3.38;;
71303;SDS011;59091;47.446;19.148;2023-01-10T06:31:00;4.30;;;3.50;;
71303;SDS011;59091;47.446;19.148;2023-01-10T06:33:25;4.45;;;3.53;;
71303;SDS011;59091;47.446;19.148;2023-01-10T06:35:50;4.22;;;3.83;;
71303;SDS011;59091;47.446;19.148;2023-01-10T06:38:16;5.20;;;3.63;;
71303;SDS011;59091;47.446;19.148;2023-01-10T06:40:42;4.03;;;3.63;;
71303;SDS011;59091;47.446;19.148;2023-01-10T06:43:08;4.38;;;3.97;;
71303;SDS011;59091;47.446;19.148;2023-01-10T06:45:33;4.72;;;4.22;;
71303;SDS011;59091;47.446;19.148;2023-01-10T06:47:58;4.30;;;3.90;;
71303;SDS011;59091;47.446;19.148;2023-01-10T06:50:24;6.00;;;4.40;;
71303;SDS011;59091;47.446;19.148;2023-01-10T06:52:56;5.50;;;4.07;;
71303;SDS011;59091;47.446;19.148;2023-01-10T06:55:26;4.28;;;3.70;;
71303;SDS011;59091;47.446;19.148;2023-01-10T06:57:58;3.95;;;3.47;;
71303;SDS011;59091;47.446;19.148;2023-01-10T07:00:25;3.40;;;3.10;;
71303;SDS011;59091;47.446;19.148;2023-01-10T07:02:51;4.38;;;2.63;;
71303;SDS011;59091;47.446;19.148;2023-01-10T07:05:18;3.17;;;2.80;;
71303;SDS011;59091;47.446;19.148;2023-01-10T07:07:44;5.45;;;2.45;;
71303;SDS011;59091;47.446;19.148;2023-01-10T07:10:10;2.63;;;2.30;;
71303;SDS011;59091;47.446;19.148;2023-01-10T07:12:35;2.42;;;2.25;;
71303;SDS011;59091;47.446;19.148;2023-01-10T07:15:01;2.45;;;2.15;;
71303;SDS011;59091;47.446;19.148;2023-01-10T07:17:26;3.88;;;2.30;;
71303;SDS011;59091;47.446;19.148;2023-01-10T07:19:53;2.10;;;2.00;;
71303;SDS011;59091;47.446;19.148;2023-01-10T07:22:19;2.63;;;2.42;;
71303;SDS011;59091;47.446;19.148;2023-01-10T07:24:44;3.00;;;2.78;;
71303;SDS011;59091;47.446;19.148;2023-01-10T07:27:10;4.10;;;2.55;;
71303;SDS011;59091;47.446;19.148;2023-01-10T07:29:35;5.43;;;3.50;;
71303;SDS011;59091;47.446;19.148;2023-01-10T07:32:01;6.72;;;2.80;;
71303;SDS011;59091;47.446;19.148;2023-01-10T07:34:26;3.92;;;2.92;;
71303;SDS011;59091;47.446;19.148;2023-01-10T07:36:51;2.75;;;2.55;;
71303;SDS011;59091;47.446;19.148;2023-01-10T07:39:17;2.60;;;2.40;;
71303;SDS011;59091;47.446;19.148;2023-01-10T07:41:42;3.97;;;2.60;;
71303;SDS011;59091;47.446;19.148;2023-01-10T07:44:08;3.55;;;2.00;;
71303;SDS011;59091;47.446;19.148;2023-01-10T07:46:33;4.05;;;2.20;;
71303;SDS011;59091;47.446;19.148;2023-01-10T07:48:59;1.70;;;1.55;;
71303;SDS011;59091;47.446;19.148;2023-01-10T07:51:24;1.88;;;1.60;;
71303;SDS011;59091;47.446;19.148;2023-01-10T07:53:49;1.80;;;1.70;;
71303;SDS011;59091;47.446;19.148;2023-01-10T07:56:15;2.03;;;1.92;;
71303;SDS011;59091;47.446;19.148;2023-01-10T07:58:40;2.05;;;1.85;;
71303;SDS011;59091;47.446;19.148;2023-01-10T08:01:06;3.33;;;2.42;;
71303;SDS011;59091;47.446;19.148;2023-01-10T08:03:31;2.00;;;1.80;;
71303;SDS011;59091;47.446;19.148;2023-01-10T08:05:58;3.15;;;2.00;;
71303;SDS011;59091;47.446;19.148;2023-01-10T08:08:24;1.90;;;1.80;;
71303;SDS011;59091;47.446;19.148;2023-01-10T08:10:50;3.97;;;1.80;;
71303;SDS011;59091;47.446;19.148;2023-01-10T08:13:15;2.50;;;2.25;;
71303;SDS011;59091;47.446;19.148;2023-01-10T08:15:41;1.65;;;1.55;;
71303;SDS011;59091;47.446;19.148;2023-01-10T08:18:06;1.63;;;1.52;;
71303;SDS011;59091;47.446;19.148;2023-01-10T08:20:31;2.03;;;1.80;;
71303;SDS011;59091;47.446;19.148;2023-01-10T08:22:57;2.20;;;2.00;;
71303;SDS011;59091;47.446;19.148;2023-01-10T08:25:24;4.70;;;1.90;;
71303;SDS011;59091;47.446;19.148;2023-01-10T08:27:50;3.55;;;2.20;;
71303;SDS011;59091;47.446;19.148;2023-01-10T08:30:16;2.60;;;2.17;;
71303;SDS011;59091;47.446;19.148;2023-01-10T08:32:41;2.88;;;2.20;;
71303;SDS011;59091;47.446;19.148;2023-01-10T08:35:07;2.63;;;1.95;;
71303;SDS011;59091;47.446;19.148;2023-01-10T08:37:33;7.63;;;2.00;;
71303;SDS011;59091;47.446;19.148;2023-01-10T08:39:59;1.88;;;1.73;;
71303;SDS011;59091;47.446;19.148;2023-01-10T08:42:25;2.10;;;1.67;;
71303;SDS011;59091;47.446;19.148;2023-01-10T08:44:50;1.75;;;1.65;;
71303;SDS011;59091;47.446;19.148;2023-01-10T08:47:16;2.63;;;1.63;;
71303;SDS011;59091;47.446;19.148;2023-01-10T08:49:41;3.50;;;1.70;;
71303;SDS011;59091;47.446;19.148;2023-01-10T08:52:06;1.27;;;1.17;;
71303;SDS011;59091;47.446;19.148;2023-01-10T08:54:33;1.30;;;1.20;;
71303;SDS011;59091;47.446;19.148;2023-01-10T08:56:59;0.98;;;0.98;;
71303;SDS011;59091;47.446;19.148;2023-01-10T08:59:24;1.63;;;1.30;;
71303;SDS011;59091;47.446;19.148;2023-01-10T09:01:49;1.25;;;1.15;;
71303;SDS011;59091;47.446;19.148;2023-01-10T09:04:15;1.45;;;1.30;;
71303;SDS011;59091;47.446;19.148;2023-01-10T09:06:41;1.55;;;1.45;;
71303;SDS011;59091;47.446;19.148;2023-01-10T09:09:06;3.97;;;1.38;;
71303;SDS011;59091;47.446;19.148;2023-01-10T09:11:32;1.73;;;1.45;;
71303;SDS011;59091;47.446;19.148;2023-01-10T09:13:57;2.13;;;1.50;;
71303;SDS011;59091;47.446;19.148;2023-01-10T09:16:23;1.30;;;1.10;;
71303;SDS011;59091;47.446;19.148;2023-01-10T09:18:48;1.52;;;1.20;;
71303;SDS011;59091;47.446;19.148;2023-01-10T09:21:14;2.33;;;1.40;;
71303;SDS011;59091;47.446;19.148;2023-01-10T09:23:39;1.40;;;1.30;;
71303;SDS011;59091;47.446;19.148;2023-01-10T09:26:05;1.20;;;1.10;;
71303;SDS011;59091;47.446;19.148;2023-01-10T09:28:31;1.50;;;0.93;;
71303;SDS011;59091;47.446;19.148;2023-01-10T09:30:56;0.80;;;0.80;;
71303;SDS011;59091;47.446;19.148;2023-01-10T09:33:22;1.67;;;1.10;;
71303;SDS011;59091;47.446;19.148;2023-01-10T09:35:47;1.25;;;0.95;;
71303;SDS011;59091;47.446;19.148;2023-01-10T09:38:16;2.05;;;1.10;;
71303;SDS011;59091;47.446;19.148;2023-01-10T09:51:33;1.80;;;1.02;;
71303;SDS011;59091;47.446;19.148;2023-01-10T09:54:02;1.08;;;0.95;;
71303;SDS011;59091;47.446;19.148;2023-01-10T09:56:31;0.88;;;0.85;;
71303;SDS011;59091;47.446;19.148;2023-01-10T09:58:58;0.93;;;0.90;;
71303;SDS011;59091;47.446;19.148;2023-01-10T10:01:26;0.80;;;0.80;;
71303;SDS011;59091;47.446;19.148;2023-01-10T10:03:57;0.82;;;0.82;;
71303;SDS011;59091;47.446;19.148;2023-01-10T10:06:29;1.77;;;1.15;;
71303;SDS011;59091;47.446;19.148;2023-01-10T10:08:58;1.30;;;1.17;;
71303;SDS011;59091;47.446;19.148;2023-01-10T10:16:53;2.65;;;1.30;;
71303;SDS011;59091;47.446;19.148;2023-01-10T10:25:43;1.48;;;1.00;;
71303;SDS011;59091;47.446;19.148;2023-01-10T10:38:49;1.10;;;0.90;;
71303;SDS011;59091;47.446;19.148;2023-01-10T10:41:39;1.88;;;1.00;;
71303;SDS011;59091;47.446;19.148;2023-01-10T10:44:13;1.42;;;1.10;;
71303;SDS011;59091;47.446;19.148;2023-01-10T10:46:41;1.05;;;1.00;;
71303;SDS011;59091;47.446;19.148;2023-01-10T10:49:17;1.52;;;1.38;;
71303;SDS011;59091;47.446;19.148;2023-01-10T10:51:51;0.65;;;0.65;;
71303;SDS011;59091;47.446;19.148;2023-01-10T10:54:17;0.93;;;0.80;;
71303;SDS011;59091;47.446;19.148;2023-01-10T10:56:43;0.95;;;0.85;;
71303;SDS011;59091;47.446;19.148;2023-01-10T10:59:10;1.25;;;1.00;;
71303;SDS011;59091;47.446;19.148;2023-01-10T11:01:43;0.80;;;0.80;;
71303;SDS011;59091;47.446;19.148;2023-01-10T11:04:13;1.50;;;0.98;;
71303;SDS011;59091;47.446;19.148;2023-01-10T11:06:41;1.38;;;1.10;;
71303;SDS011;59091;47.446;19.148;2023-01-10T11:09:20;1.27;;;1.23;;
71303;SDS011;59091;47.446;19.148;2023-01-10T11:12:17;0.77;;;0.77;;
71303;SDS011;59091;47.446;19.148;2023-01-10T11:14:46;0.75;;;0.75;;
71303;SDS011;59091;47.446;19.148;2023-01-10T11:17:18;2.55;;;1.15;;
71303;SDS011;59091;47.446;19.148;2023-01-10T11:20:01;0.70;;;0.70;;
71303;SDS011;59091;47.446;19.148;2023-01-10T11:22:32;1.00;;;1.00;;
71303;SDS011;59091;47.446;19.148;2023-01-10T11:25:14;0.70;;;0.70;;
71303;SDS011;59091;47.446;19.148;2023-01-10T11:27:44;0.70;;;0.70;;
71303;SDS011;59091;47.446;19.148;2023-01-10T11:30:23;0.98;;;0.98;;
71303;SDS011;59091;47.446;19.148;2023-01-10T11:32:56;1.30;;;1.10;;
71303;SDS011;59091;47.446;19.148;2023-01-10T11:35:34;2.60;;;1.30;;
71303;SDS011;59091;47.446;19.148;2023-01-10T11:38:18;1.17;;;1.13;;
71303;SDS011;59091;47.446;19.148;2023-01-10T11:41:04;1.70;;;0.90;;
71303;SDS011;59091;47.446;19.148;2023-01-10T11:43:46;1.00;;;1.00;;
71303;SDS011;59091;47.446;19.148;2023-01-10T11:46:12;0.90;;;0.90;;
71303;SDS011;59091;47.446;19.148;2023-01-10T11:51:24;0.90;;;0.90;;
71303;SDS011;59091;47.446;19.148;2023-01-10T11:53:58;1.33;;;0.98;;
71303;SDS011;59091;47.446;19.148;2023-01-10T11:56:29;0.95;;;0.95;;
71303;SDS011;59091;47.446;19.148;2023-01-10T11:58:57;1.17;;;0.90;;
71303;SDS011;59091;47.446;19.148;2023-01-10T12:01:41;1.58;;;0.98;;
71303;SDS011;59091;47.446;19.148;2023-01-10T12:04:20;0.80;;;0.80;;
71303;SDS011;59091;47.446;19.148;2023-01-10T12:06:48;1.30;;;1.20;;
71303;SDS011;59091;47.446;19.148;2023-01-10T12:09:30;1.35;;;1.00;;
71303;SDS011;59091;47.446;19.148;2023-01-10T12:12:00;4.55;;;1.77;;
71303;SDS011;59091;47.446;19.148;2023-01-10T12:14:46;3.40;;;2.22;;
71303;SDS011;59091;47.446;19.148;2023-01-10T12:17:15;1.95;;;1.65;;
71303;SDS011;59091;47.446;19.148;2023-01-10T12:19:51;2.13;;;1.95;;
71303;SDS011;59091;47.446;19.148;2023-01-10T12:22:20;1.70;;;1.40;;
71303;SDS011;59091;47.446;19.148;2023-01-10T12:24:51;1.58;;;1.35;;
71303;SDS011;59091;47.446;19.148;2023-01-10T12:27:18;1.80;;;1.45;;
71303;SDS011;59091;47.446;19.148;2023-01-10T12:29:46;1.13;;;1.10;;
71303;SDS011;59091;47.446;19.148;2023-01-10T12:32:22;1.80;;;1.45;;
71303;SDS011;59091;47.446;19.148;2023-01-10T12:34:55;1.80;;;1.40;;
71303;SDS011;59091;47.446;19.148;2023-01-10T12:37:44;1.27;;;1.13;;
71303;SDS011;59091;47.446;19.148;2023-01-10T12:43:26;1.73;;;1.38;;
71303;SDS011;59091;47.446;19.148;2023-01-10T12:48:49;1.48;;;1.38;;
71303;SDS011;59091;47.446;19.148;2023-01-10T12:51:21;1.13;;;1.08;;
71303;SDS011;59091;47.446;19.148;2023-01-10T12:53:58;1.38;;;1.27;;
71303;SDS011;59091;47.446;19.148;2023-01-10T12:56:29;3.40;;;1.40;;
71303;SDS011;59091;47.446;19.148;2023-01-10T12:58:57;1.10;;;1.10;;
71303;SDS011;59091;47.446;19.148;2023-01-10T13:01:30;1.63;;;1.33;;
71303;SDS011;59091;47.446;19.148;2023-01-10T13:04:00;1.40;;;1.20;;
71303;SDS011;59091;47.446;19.148;2023-01-10T13:06:33;1.45;;;1.35;;
71303;SDS011;59091;47.446;19.148;2023-01-10T13:11:39;1.60;;;1.50;;
71303;SDS011;59091;47.446;19.148;2023-01-10T13:14:13;3.85;;;1.67;;
71303;SDS011;59091;47.446;19.148;2023-01-10T13:16:44;3.72;;;1.85;;
71303;SDS011;59091;47.446;19.148;2023-01-10T13:21:43;1.48;;;1.30;;
71303;SDS011;59091;47.446;19.148;2023-01-10T13:31:57;1.77;;;1.48;;
71303;SDS011;59091;47.446;19.148;2023-01-10T13:34:26;1.92;;;1.60;;
71303;SDS011;59091;47.446;19.148;2023-01-10T13:36:59;3.50;;;1.83;;
71303;SDS011;59091;47.446;19.148;2023-01-10T13:39:37;3.95;;;1.58;;
71303;SDS011;59091;47.446;19.148;2023-01-10T14:06:02;4.78;;;1.88;;
71303;SDS011;59091;47.446;19.148;2023-01-10T14:08:35;2.58;;;1.90;;
71303;SDS011;59091;47.446;19.148;2023-01-10T14:11:08;2.35;;;1.98;;
71303;SDS011;59091;47.446;19.148;2023-01-10T14:13:36;2.20;;;1.70;;
71303;SDS011;59091;47.446;19.148;2023-01-10T14:16:03;2.30;;;1.95;;
71303;SDS011;59091;47.446;19.148;2023-01-10T14:18:34;5.95;;;1.92;;
71303;SDS011;59091;47.446;19.148;2023-01-10T14:21:09;2.67;;;2.00;;
71303;SDS011;59091;47.446;19.148;2023-01-10T14:23:48;2.78;;;1.85;;
71303;SDS011;59091;47.446;19.148;2023-01-10T14:26:35;2.58;;;2.17;;
71303;SDS011;59091;47.446;19.148;2023-01-10T14:29:09;1.80;;;1.70;;
71303;SDS011;59091;47.446;19.148;2023-01-10T14:31:43;1.70;;;1.60;;
71303;SDS011;59091;47.446;19.148;2023-01-10T14:34:12;3.55;;;2.20;;
71303;SDS011;59091;47.446;19.148;2023-01-10T14:37:27;2.75;;;1.95;;
71303;SDS011;59091;47.446;19.148;2023-01-10T14:39:39;1.60;;;1.50;;
71303;SDS011;59091;47.446;19.148;2023-01-10T14:42:07;5.88;;;1.65;;
71303;SDS011;59091;47.446;19.148;2023-01-10T14:44:41;2.47;;;1.90;;
71303;SDS011;59091;47.446;19.148;2023-01-10T14:50:20;1.67;;;1.50;;
71303;SDS011;59091;47.446;19.148;2023-01-10T14:52:54;1.60;;;1.50;;
71303;SDS011;59091;47.446;19.148;2023-01-10T14:55:20;2.67;;;1.85;;
71303;SDS011;59091;47.446;19.148;2023-01-10T14:57:53;2.22;;;1.80;;
71303;SDS011;59091;47.446;19.148;2023-01-10T15:00:23;2.40;;;2.08;;
71303;SDS011;59091;47.446;19.148;2023-01-10T15:02:52;1.88;;;1.70;;
71303;SDS011;59091;47.446;19.148;2023-01-10T15:05:25;2.13;;;1.75;;
71303;SDS011;59091;47.446;19.148;2023-01-10T15:08:13;1.70;;;1.60;;
71303;SDS011;59091;47.446;19.148;2023-01-10T15:10:41;1.60;;;1.50;;
71303;SDS011;59091;47.446;19.148;2023-01-10T15:13:09;1.55;;;1.40;;
71303;SDS011;59091;47.446;19.148;2023-01-10T15:15:39;3.13;;;1.80;;
71303;SDS011;59091;47.446;19.148;2023-01-10T15:20:58;4.35;;;2.28;;
71303;SDS011;59091;47.446;19.148;2023-01-10T15:23:24;5.88;;;2.65;;
71303;SDS011;59091;47.446;19.148;2023-01-10T15:25:58;2.72;;;2.30;;
71303;SDS011;59091;47.446;19.148;2023-01-10T15:28:26;3.00;;;2.67;;
71303;SDS011;59091;47.446;19.148;2023-01-10T15:30:55;4.03;;;2.85;;
71303;SDS011;59091;47.446;19.148;2023-01-10T15:33:26;3.47;;;2.53;;
71303;SDS011;59091;47.446;19.148;2023-01-10T15:35:54;1.83;;;1.67;;
71303;SDS011;59091;47.446;19.148;2023-01-10T15:38:22;3.00;;;2.30;;
71303;SDS011;59091;47.446;19.148;2023-01-10T15:40:57;2.35;;;1.83;;
71303;SDS011;59091;47.446;19.148;2023-01-10T15:43:27;3.92;;;2.22;;
71303;SDS011;59091;47.446;19.148;2023-01-10T15:45:54;3.10;;;2.25;;
71303;SDS011;59091;47.446;19.148;2023-01-10T15:51:20;4.82;;;2.55;;
71303;SDS011;59091;47.446;19.148;2023-01-10T15:54:01;1.98;;;1.77;;
71303;SDS011;59091;47.446;19.148;2023-01-10T16:01:30;2.25;;;1.77;;
71303;SDS011;59091;47.446;19.148;2023-01-10T16:04:01;3.28;;;1.85;;
71303;SDS011;59091;47.446;19.148;2023-01-10T16:06:30;2.92;;;1.83;;
71303;SDS011;59091;47.446;19.148;2023-01-10T16:08:58;2.47;;;1.80;;
71303;SDS011;59091;47.446;19.148;2023-01-10T16:11:46;2.10;;;1.88;;
71303;SDS011;59091;47.446;19.148;2023-01-10T16:14:32;2.00;;;1.88;;
71303;SDS011;59091;47.446;19.148;2023-01-10T16:16:58;2.50;;;2.08;;
71303;SDS011;59091;47.446;19.148;2023-01-10T16:19:24;2.47;;;1.77;;
71303;SDS011;59091;47.446;19.148;2023-01-10T16:21:50;3.00;;;1.92;;
71303;SDS011;59091;47.446;19.148;2023-01-10T16:24:23;3.75;;;2.20;;
71303;SDS011;59091;47.446;19.148;2023-01-10T16:26:56;3.85;;;2.35;;
71303;SDS011;59091;47.446;19.148;2023-01-10T16:29:24;2.67;;;1.90;;
71303;SDS011;59091;47.446;19.148;2023-01-10T16:31:50;2.55;;;1.85;;
71303;SDS011;59091;47.446;19.148;2023-01-10T16:34:17;2.40;;;1.95;;
71303;SDS011;59091;47.446;19.148;2023-01-10T16:36:43;2.45;;;2.08;;
71303;SDS011;59091;47.446;19.148;2023-01-10T16:39:14;2.55;;;1.83;;
71303;SDS011;59091;47.446;19.148;2023-01-10T16:41:42;2.70;;;1.85;;
71303;SDS011;59091;47.446;19.148;2023-01-10T16:44:27;2.30;;;1.90;;
71303;SDS011;59091;47.446;19.148;2023-01-10T16:46:53;2.17;;;1.85;;
71303;SDS011;59091;47.446;19.148;2023-01-10T16:49:19;3.50;;;2.20;;